Time;durP1;ratioP1;P1;durP2;ratioP2;P2;SDS_P1;SDS_P2;PMS_P1;PMS_P2;Temp;Humidity;BMP_temperature;BMP_pressure;BME280_temperature;BME280_humidity;BME280_pressure;Samples;Min_cycle;Max_cycle;Signal;HPM_P1;HPM_P2
2021/10/03 00:00:37;;;;;;;5.15;2.47;;;14.80;99.90;;;;;;4859929;29;20049;-96
2021/10/03 00:03:09;;;;;;;2.92;2.72;;;14.90;99.90;;;;;;4888115;29;20056;-95
2021/10/03 00:05:37;;;;;;;3.88;2.97;;;15.00;99.90;;;;;;4887675;29;20099;-95
2021/10/03 00:08:05;;;;;;;4.70;2.40;;;14.90;99.90;;;;;;4870803;29;20052;-96
2021/10/03 00:10:32;;;;;;;2.38;2.20;;;15.00;99.90;;;;;;4832373;29;20493;-95
2021/10/03 00:13:04;;;;;;;2.30;2.10;;;15.00;99.90;;;;;;4879401;29;20104;-94
2021/10/03 00:15:37;;;;;;;2.80;2.22;;;15.00;99.90;;;;;;4851833;29;20056;-95
2021/10/03 00:18:05;;;;;;;4.05;2.08;;;15.10;99.90;;;;;;4880417;29;20052;-96
2021/10/03 00:20:31;;;;;;;4.25;2.40;;;15.20;99.90;;;;;;4880541;29;20098;-96
2021/10/03 00:22:58;;;;;;;3.78;2.22;;;15.30;99.90;;;;;;4879681;29;20045;-95
2021/10/03 00:25:26;;;;;;;6.75;2.38;;;15.30;99.90;;;;;;4880609;29;20053;-96
2021/10/03 00:27:53;;;;;;;3.95;2.20;;;15.30;99.90;;;;;;4850540;29;20052;-96
2021/10/03 00:30:25;;;;;;;2.85;2.17;;;15.30;99.90;;;;;;4880551;29;20497;-96
2021/10/03 00:32:51;;;;;;;7.55;2.60;;;15.30;99.90;;;;;;4878595;29;20059;-96
2021/10/03 00:35:17;;;;;;;5.72;1.92;;;15.30;99.90;;;;;;4863211;29;20175;-96
2021/10/03 00:37:43;;;;;;;4.00;2.20;;;15.30;99.90;;;;;;4864444;29;20052;-96
2021/10/03 00:40:10;;;;;;;5.60;2.17;;;15.40;99.90;;;;;;4879960;29;20055;-96
2021/10/03 00:42:37;;;;;;;2.53;2.30;;;15.40;99.90;;;;;;4864745;29;20084;-96
2021/10/03 00:45:06;;;;;;;2.85;2.33;;;15.40;99.90;;;;;;4863352;29;20080;-95
2021/10/03 00:47:31;;;;;;;2.60;2.40;;;15.40;99.90;;;;;;4862889;29;20457;-95
2021/10/03 00:49:57;;;;;;;2.88;2.38;;;15.30;99.90;;;;;;4881501;29;20126;-95
2021/10/03 00:52:24;;;;;;;2.75;2.30;;;15.40;99.90;;;;;;4900198;29;20044;-96
2021/10/03 00:54:50;;;;;;;5.35;2.42;;;15.40;99.90;;;;;;4877036;29;20116;-96
2021/10/03 00:57:16;;;;;;;4.82;2.30;;;15.40;99.90;;;;;;4847019;29;20051;-96
2021/10/03 00:59:42;;;;;;;3.10;2.47;;;15.40;99.90;;;;;;4849405;29;20052;-96
2021/10/03 01:02:08;;;;;;;3.25;2.50;;;15.40;99.90;;;;;;4840225;29;20086;-95
2021/10/03 01:04:34;;;;;;;2.67;2.10;;;15.40;99.90;;;;;;4853970;29;20052;-94
2021/10/03 01:06:59;;;;;;;2.10;1.90;;;15.40;99.90;;;;;;4864879;29;20053;-95
2021/10/03 01:09:25;;;;;;;2.35;2.22;;;15.30;99.90;;;;;;4865405;29;20056;-94
2021/10/03 01:11:51;;;;;;;5.22;2.13;;;15.30;99.90;;;;;;4865122;29;20048;-95
2021/10/03 01:14:20;;;;;;;3.13;2.60;;;15.30;99.90;;;;;;4853425;29;20044;-94
2021/10/03 01:16:47;;;;;;;2.85;2.28;;;15.30;99.90;;;;;;4865005;29;20055;-94
2021/10/03 01:19:13;;;;;;;5.70;2.50;;;15.30;99.90;;;;;;4880110;29;20131;-94
2021/10/03 01:21:41;;;;;;;2.50;2.30;;;15.30;99.90;;;;;;4849991;29;20499;-95
2021/10/03 01:24:07;;;;;;;6.75;2.75;;;15.30;99.90;;;;;;4865557;29;20052;-96
2021/10/03 01:26:33;;;;;;;3.63;2.38;;;15.40;99.90;;;;;;4847162;29;20052;-96
2021/10/03 01:28:59;;;;;;;3.85;2.17;;;15.30;99.90;;;;;;4830729;29;20059;-96
2021/10/03 01:31:27;;;;;;;2.05;1.85;;;15.40;99.90;;;;;;4884865;29;20059;-95
2021/10/03 01:33:54;;;;;;;5.63;2.17;;;15.40;99.90;;;;;;4881861;29;20053;-95
2021/10/03 01:36:21;;;;;;;2.05;1.85;;;15.40;99.90;;;;;;4869705;29;20179;-95
2021/10/03 01:38:47;;;;;;;2.95;1.60;;;15.40;99.90;;;;;;4864793;29;20048;-95
2021/10/03 01:41:12;;;;;;;7.43;2.05;;;15.40;99.90;;;;;;4891746;29;20043;-96
2021/10/03 01:43:38;;;;;;;6.28;2.03;;;15.50;99.90;;;;;;4846207;29;20052;-95
2021/10/03 01:46:04;;;;;;;1.92;1.77;;;15.50;99.90;;;;;;4877911;29;20505;-95
2021/10/03 01:48:30;;;;;;;2.28;1.50;;;15.50;99.90;;;;;;4869579;29;20045;-95
2021/10/03 01:51:00;;;;;;;1.70;1.60;;;15.50;99.90;;;;;;4875923;29;20079;-96
2021/10/03 01:53:34;;;;;;;2.10;1.50;;;15.50;99.90;;;;;;4882968;29;20193;-95
2021/10/03 01:56:00;;;;;;;6.03;1.75;;;15.50;99.90;;;;;;4868039;29;20068;-95
2021/10/03 01:58:30;;;;;;;4.13;1.90;;;15.50;99.90;;;;;;4850563;29;20059;-94
2021/10/03 02:01:01;;;;;;;3.35;2.03;;;15.50;99.90;;;;;;4867976;29;20081;-95
2021/10/03 02:03:27;;;;;;;3.55;1.60;;;15.50;99.90;;;;;;4878350;29;20044;-95
2021/10/03 02:05:52;;;;;;;1.40;1.30;;;15.60;99.90;;;;;;4894103;29;20501;-96
2021/10/03 02:08:18;;;;;;;1.70;1.60;;;15.60;99.90;;;;;;4850980;29;20075;-94
2021/10/03 02:10:50;;;;;;;1.40;1.25;;;15.60;99.90;;;;;;4852292;29;20060;-94
2021/10/03 02:13:18;;;;;;;3.22;1.58;;;15.60;99.90;;;;;;4868498;29;20045;-94
2021/10/03 02:15:45;;;;;;;1.67;1.45;;;15.60;99.90;;;;;;4869244;29;20057;-96
2021/10/03 02:18:13;;;;;;;1.70;1.60;;;15.50;99.90;;;;;;4851596;29;20086;-95
2021/10/03 02:20:40;;;;;;;4.25;1.85;;;15.50;99.90;;;;;;4882423;29;20489;-94
2021/10/03 02:23:10;;;;;;;1.70;1.55;;;15.50;99.90;;;;;;4869257;29;20512;-96
2021/10/03 02:25:43;;;;;;;6.22;1.60;;;15.60;99.90;;;;;;4870240;29;20050;-96
2021/10/03 02:28:14;;;;;;;1.60;1.50;;;15.50;99.90;;;;;;4883767;29;20045;-95
2021/10/03 02:30:41;;;;;;;2.88;1.50;;;15.60;99.90;;;;;;4882886;29;20659;-95
2021/10/03 02:33:07;;;;;;;1.67;1.58;;;15.50;99.90;;;;;;4866023;29;20658;-94
2021/10/03 02:35:33;;;;;;;1.88;1.50;;;15.50;99.90;;;;;;4867618;29;20084;-95
2021/10/03 02:37:59;;;;;;;3.55;1.70;;;15.50;99.90;;;;;;4882822;29;20087;-95
2021/10/03 02:40:25;;;;;;;2.28;1.40;;;15.50;99.90;;;;;;4852116;29;20120;-94
2021/10/03 02:42:50;;;;;;;1.73;1.20;;;15.60;99.90;;;;;;4877635;29;20108;-95
2021/10/03 02:45:16;;;;;;;1.83;1.13;;;15.60;99.90;;;;;;4895205;29;20064;-93
2021/10/03 02:47:42;;;;;;;1.38;1.05;;;15.60;99.90;;;;;;4867082;29;20044;-93
2021/10/03 02:50:08;;;;;;;1.40;1.15;;;15.60;99.90;;;;;;4850921;29;20060;-95
2021/10/03 02:52:35;;;;;;;5.78;1.60;;;15.60;99.90;;;;;;4866809;29;20100;-95
2021/10/03 02:55:01;;;;;;;16.83;1.58;;;15.60;99.90;;;;;;4866402;29;20053;-94
2021/10/03 02:57:27;;;;;;;1.33;1.10;;;15.60;99.90;;;;;;4881593;29;20197;-95
2021/10/03 02:59:52;;;;;;;1.45;1.35;;;15.60;99.90;;;;;;4866849;29;20052;-95
2021/10/03 03:02:18;;;;;;;1.77;1.58;;;15.60;99.90;;;;;;4851374;29;20047;-95
2021/10/03 03:04:44;;;;;;;2.95;1.83;;;15.60;99.90;;;;;;4867918;29;20057;-95
2021/10/03 03:07:09;;;;;;;2.17;1.60;;;15.60;99.90;;;;;;4859181;29;20049;-96
2021/10/03 03:09:35;;;;;;;2.38;2.10;;;15.60;99.90;;;;;;4876816;29;20048;-96
2021/10/03 03:12:01;;;;;;;1.73;1.63;;;15.60;99.90;;;;;;4875921;29;20048;-96
2021/10/03 03:14:27;;;;;;;3.55;1.92;;;15.60;99.90;;;;;;4873939;29;20233;-96
2021/10/03 03:16:54;;;;;;;3.00;1.98;;;15.60;99.90;;;;;;4873321;29;20056;-95
2021/10/03 03:19:20;;;;;;;3.15;1.83;;;15.60;99.90;;;;;;4871944;29;20095;-96
2021/10/03 03:21:46;;;;;;;2.40;2.20;;;15.60;99.90;;;;;;4875864;29;20041;-96
2021/10/03 03:24:12;;;;;;;2.88;2.08;;;15.60;99.90;;;;;;4884177;29;20054;-93
2021/10/03 03:26:38;;;;;;;2.47;2.20;;;15.60;99.90;;;;;;4866774;29;20080;-95
2021/10/03 03:29:05;;;;;;;2.60;2.22;;;15.60;99.90;;;;;;4850830;29;20056;-95
2021/10/03 03:31:31;;;;;;;3.05;2.38;;;15.60;99.90;;;;;;4867289;29;20188;-95
2021/10/03 03:33:57;;;;;;;3.35;2.50;;;15.60;99.90;;;;;;4873668;29;20065;-96
2021/10/03 03:36:24;;;;;;;2.70;2.50;;;15.60;99.90;;;;;;4880694;29;20052;-96
2021/10/03 03:38:50;;;;;;;2.25;2.05;;;15.60;99.90;;;;;;4865412;29;20124;-95
2021/10/03 03:41:16;;;;;;;1.95;1.70;;;15.60;99.90;;;;;;4864538;29;20056;-96
2021/10/03 03:43:43;;;;;;;2.13;1.85;;;15.70;99.90;;;;;;4850080;29;20051;-95
2021/10/03 03:46:09;;;;;;;2.05;1.50;;;15.60;99.90;;;;;;4881423;29;20185;-96
2021/10/03 03:48:35;;;;;;;4.90;1.73;;;15.70;99.90;;;;;;4864641;29;20056;-96
2021/10/03 03:51:03;;;;;;;3.40;1.75;;;15.70;99.90;;;;;;4865847;29;20503;-95
2021/10/03 03:53:30;;;;;;;1.52;1.42;;;15.70;99.90;;;;;;4847128;29;20136;-94
2021/10/03 03:55:56;;;;;;;1.80;1.30;;;15.80;99.90;;;;;;4838495;29;20049;-94
2021/10/03 03:58:22;;;;;;;1.73;1.25;;;15.80;99.90;;;;;;4877424;29;20493;-94
2021/10/03 04:00:47;;;;;;;1.48;1.33;;;15.70;99.90;;;;;;4865842;29;20044;-92
2021/10/03 04:03:13;;;;;;;1.20;1.20;;;15.80;99.90;;;;;;4851701;29;20080;-93
2021/10/03 04:05:39;;;;;;;1.75;1.10;;;15.80;99.90;;;;;;4865082;29;20055;-95
2021/10/03 04:08:09;;;;;;;2.20;1.00;;;15.80;99.90;;;;;;4865837;29;20063;-94
2021/10/03 04:10:35;;;;;;;1.60;1.50;;;15.90;99.90;;;;;;4864793;29;20095;-94
2021/10/03 04:13:01;;;;;;;1.80;1.20;;;15.90;99.90;;;;;;4865526;29;20489;-95
2021/10/03 04:15:27;;;;;;;1.52;1.17;;;15.90;99.90;;;;;;4864791;29;20076;-94
2021/10/03 04:17:53;;;;;;;1.02;1.02;;;15.90;99.90;;;;;;4864894;29;20052;-96
2021/10/03 04:20:18;;;;;;;2.45;1.27;;;15.90;99.90;;;;;;4838644;29;20486;-95
2021/10/03 04:22:44;;;;;;;2.50;1.17;;;15.90;99.90;;;;;;4848860;29;20053;-96
2021/10/03 04:25:12;;;;;;;1.30;1.20;;;15.90;99.90;;;;;;4858022;29;20049;-96
2021/10/03 04:27:38;;;;;;;11.15;1.20;;;15.90;99.90;;;;;;4867591;29;20083;-93
2021/10/03 04:30:05;;;;;;;6.55;0.70;;;15.80;99.90;;;;;;4879278;29;20514;-95
2021/10/03 04:32:31;;;;;;;2.38;0.85;;;15.40;99.90;;;;;;4885062;29;20215;-96
2021/10/03 04:34:57;;;;;;;6.15;0.70;;;15.20;99.90;;;;;;4884283;29;20128;-95
2021/10/03 04:37:23;;;;;;;2.50;0.90;;;15.10;99.90;;;;;;4867790;29;20134;-95
2021/10/03 04:39:50;;;;;;;2.50;0.65;;;14.90;99.90;;;;;;4881252;29;20052;-95
2021/10/03 04:42:16;;;;;;;4.97;0.70;;;14.90;99.90;;;;;;4888902;29;20053;-94
2021/10/03 04:44:42;;;;;;;2.30;0.65;;;14.90;99.90;;;;;;4881109;29;20044;-96
2021/10/03 04:47:08;;;;;;;2.00;0.70;;;14.90;99.90;;;;;;4887421;29;20045;-95
2021/10/03 04:49:34;;;;;;;6.22;0.77;;;14.90;99.90;;;;;;4882071;29;20060;-96
2021/10/03 04:51:59;;;;;;;2.35;0.50;;;14.80;99.90;;;;;;4870865;29;20063;-95
2021/10/03 04:54:25;;;;;;;1.30;0.50;;;14.80;99.90;;;;;;4864321;29;20469;-96
2021/10/03 04:56:51;;;;;;;2.50;0.45;;;14.80;99.90;;;;;;4854433;29;20044;-95
2021/10/03 04:59:17;;;;;;;4.28;0.40;;;14.80;99.90;;;;;;4880610;29;20099;-95
2021/10/03 05:01:44;;;;;;;1.50;0.60;;;14.80;99.90;;;;;;4850159;29;20132;-95
2021/10/03 05:04:09;;;;;;;2.97;0.50;;;14.80;99.90;;;;;;4865053;29;20057;-94
2021/10/03 05:06:35;;;;;;;4.55;0.57;;;14.80;99.90;;;;;;4849843;29;20069;-96
2021/10/03 05:09:03;;;;;;;2.10;0.55;;;14.80;99.90;;;;;;4866035;29;20496;-95
2021/10/03 05:11:29;;;;;;;3.13;0.60;;;14.80;99.90;;;;;;4880829;29;20556;-95
2021/10/03 05:13:55;;;;;;;0.85;0.77;;;14.80;99.90;;;;;;4865077;29;20056;-95
2021/10/03 05:16:20;;;;;;;1.65;0.63;;;14.80;99.90;;;;;;4881055;29;20040;-95
2021/10/03 05:18:46;;;;;;;1.10;0.88;;;14.80;99.90;;;;;;4868040;29;20136;-94
2021/10/03 05:21:12;;;;;;;7.70;0.90;;;14.80;99.90;;;;;;4866485;29;20052;-95
2021/10/03 05:23:38;;;;;;;1.73;0.70;;;14.80;99.90;;;;;;4851191;29;20053;-94
2021/10/03 05:26:04;;;;;;;7.43;0.95;;;14.80;99.90;;;;;;4867088;29;20049;-94
2021/10/03 05:28:30;;;;;;;2.47;0.70;;;14.80;99.90;;;;;;4883193;29;20045;-94
2021/10/03 05:31:16;;;;;;;1.23;0.60;;;14.80;99.90;;;;;;4861729;29;20056;-96
2021/10/03 05:33:42;;;;;;;1.05;0.35;;;14.80;99.90;;;;;;4881520;29;20120;-96
2021/10/03 05:36:08;;;;;;;0.65;0.40;;;14.70;99.90;;;;;;4889220;29;20113;-96
2021/10/03 05:38:34;;;;;;;0.80;0.40;;;14.50;99.90;;;;;;4892091;29;20123;-96
2021/10/03 05:41:00;;;;;;;1.00;0.30;;;14.40;99.90;;;;;;4875327;29;20167;-96
2021/10/03 05:43:25;;;;;;;2.13;0.60;;;14.30;99.90;;;;;;4854286;29;20464;-96
2021/10/03 05:45:51;;;;;;;2.40;0.85;;;14.20;99.90;;;;;;4871046;29;20139;-96
2021/10/03 05:48:19;;;;;;;4.70;0.68;;;14.10;99.90;;;;;;4885158;29;20079;-96
2021/10/03 05:50:44;;;;;;;1.27;0.40;;;14.00;99.90;;;;;;4886142;29;20087;-95
2021/10/03 05:53:10;;;;;;;1.15;0.30;;;14.00;99.90;;;;;;4838664;29;20118;-96
2021/10/03 05:55:36;;;;;;;0.93;0.30;;;14.00;99.90;;;;;;4870045;29;20419;-96
2021/10/03 05:58:02;;;;;;;3.13;0.50;;;14.00;99.90;;;;;;4869377;29;20045;-96
2021/10/03 06:00:28;;;;;;;2.75;0.50;;;14.00;99.90;;;;;;4883632;29;20052;-96
2021/10/03 06:02:54;;;;;;;4.57;0.57;;;14.00;99.90;;;;;;4884736;29;20040;-96
2021/10/03 06:05:20;;;;;;;6.07;0.45;;;13.90;99.90;;;;;;4888911;29;20048;-96
2021/10/03 06:07:46;;;;;;;0.98;0.30;;;13.90;99.90;;;;;;4878462;29;20049;-95
2021/10/03 06:10:12;;;;;;;5.10;0.60;;;13.90;99.90;;;;;;4856096;29;20083;-96
2021/10/03 06:12:37;;;;;;;1.63;0.40;;;13.90;99.90;;;;;;4868102;29;20052;-96
2021/10/03 06:15:05;;;;;;;5.57;0.98;;;13.90;99.90;;;;;;4902901;29;20047;-95
2021/10/03 06:17:31;;;;;;;1.17;0.50;;;13.90;99.90;;;;;;4870192;29;20059;-96
2021/10/03 06:20:03;;;;;;;2.20;0.60;;;13.90;99.90;;;;;;4877121;29;20104;-96
2021/10/03 06:22:29;;;;;;;4.45;0.68;;;13.90;99.90;;;;;;4874330;29;20048;-95
2021/10/03 06:24:55;;;;;;;5.35;0.73;;;13.90;99.90;;;;;;4889390;29;20096;-96
2021/10/03 06:27:21;;;;;;;2.08;0.77;;;13.90;99.90;;;;;;4871866;29;20111;-96
2021/10/03 06:29:46;;;;;;;2.47;0.47;;;13.80;99.90;;;;;;4860131;29;20397;-96
2021/10/03 06:32:12;;;;;;;0.82;0.40;;;13.90;99.90;;;;;;4884184;29;20131;-96
2021/10/03 06:34:38;;;;;;;2.50;0.52;;;13.80;99.90;;;;;;4867705;29;20518;-96
2021/10/03 06:37:04;;;;;;;2.72;0.77;;;13.80;99.90;;;;;;4875668;29;20404;-96
2021/10/03 06:39:30;;;;;;;2.40;1.35;;;13.80;99.90;;;;;;4863631;29;20044;-94
2021/10/03 06:41:55;;;;;;;4.25;0.60;;;13.80;99.90;;;;;;4833867;29;20049;-95
2021/10/03 06:44:21;;;;;;;2.88;0.70;;;13.80;99.90;;;;;;4860745;29;20060;-96
2021/10/03 06:46:47;;;;;;;3.20;1.23;;;13.80;99.90;;;;;;4875792;29;20671;-96
2021/10/03 06:49:13;;;;;;;3.83;0.82;;;13.80;99.90;;;;;;4884996;29;20088;-94
2021/10/03 06:51:42;;;;;;;1.67;0.60;;;13.80;99.90;;;;;;4847702;29;20044;-96
2021/10/03 06:54:10;;;;;;;2.75;0.63;;;13.80;99.90;;;;;;4864769;29;20516;-94
2021/10/03 06:56:37;;;;;;;1.30;0.50;;;13.80;99.90;;;;;;4869729;29;20056;-96
2021/10/03 06:59:04;;;;;;;0.85;0.80;;;13.80;99.90;;;;;;4873418;29;20508;-96
2021/10/03 07:01:30;;;;;;;1.13;0.50;;;13.80;99.90;;;;;;4854023;29;20060;-95
2021/10/03 07:03:58;;;;;;;1.08;0.30;;;13.80;99.90;;;;;;4856712;29;20048;-95
2021/10/03 07:06:24;;;;;;;3.13;0.55;;;13.80;99.90;;;;;;4871120;29;20107;-96
2021/10/03 07:08:50;;;;;;;2.45;0.40;;;13.80;99.90;;;;;;4871693;29;20053;-96
2021/10/03 07:11:16;;;;;;;2.17;0.50;;;13.90;99.90;;;;;;4856295;29;20056;-95
2021/10/03 07:13:43;;;;;;;3.35;0.55;;;13.80;99.90;;;;;;4861004;29;20045;-95
2021/10/03 07:16:09;;;;;;;1.15;0.50;;;13.90;99.90;;;;;;4837992;29;20052;-95
2021/10/03 07:18:35;;;;;;;0.95;0.50;;;13.90;99.90;;;;;;4855480;29;20052;-96
2021/10/03 07:21:03;;;;;;;1.00;0.40;;;13.90;99.90;;;;;;4867431;29;20052;-96
2021/10/03 07:23:32;;;;;;;2.22;0.60;;;13.90;99.90;;;;;;4887502;29;20080;-96
2021/10/03 07:25:58;;;;;;;0.80;0.60;;;13.90;99.90;;;;;;4874481;29;20048;-96
2021/10/03 07:28:24;;;;;;;1.08;0.55;;;14.00;99.90;;;;;;4869451;29;20067;-94
2021/10/03 07:30:51;;;;;;;1.27;0.70;;;14.00;99.90;;;;;;4882697;29;20075;-96
2021/10/03 07:33:18;;;;;;;1.85;0.60;;;14.00;99.90;;;;;;4883783;29;20119;-94
2021/10/03 07:35:48;;;;;;;1.80;0.70;;;14.10;99.90;;;;;;4848302;29;20048;-95
2021/10/03 07:38:14;;;;;;;1.13;0.70;;;14.10;99.90;;;;;;4851455;29;20040;-96
2021/10/03 07:40:41;;;;;;;0.98;0.50;;;14.10;99.90;;;;;;4867040;29;20044;-96
2021/10/03 07:43:07;;;;;;;2.03;1.10;;;14.10;99.90;;;;;;4866307;29;20607;-96
2021/10/03 07:45:35;;;;;;;3.63;0.50;;;14.20;99.90;;;;;;4919218;23;20027;-95
2021/10/03 07:48:01;;;;;;;1.38;0.70;;;14.10;99.90;;;;;;4872297;29;20052;-96
2021/10/03 07:50:27;;;;;;;1.02;0.70;;;14.20;99.90;;;;;;4892138;29;20059;-96
2021/10/03 07:52:53;;;;;;;0.95;0.75;;;14.20;99.90;;;;;;4867135;29;20048;-95
2021/10/03 07:55:19;;;;;;;3.13;0.90;;;14.20;99.90;;;;;;4882051;29;20507;-96
2021/10/03 07:57:47;;;;;;;0.60;0.60;;;14.20;99.90;;;;;;4851847;29;20413;-96
2021/10/03 08:00:13;;;;;;;6.07;0.70;;;14.30;99.90;;;;;;4859645;29;20051;-96
2021/10/03 08:02:39;;;;;;;2.97;0.80;;;14.20;99.90;;;;;;4873526;29;20048;-95
2021/10/03 08:05:06;;;;;;;2.78;0.77;;;14.20;99.90;;;;;;4873956;29;20049;-92
2021/10/03 08:07:32;;;;;;;3.72;0.95;;;14.20;99.90;;;;;;4874246;29;20074;-94
2021/10/03 08:10:01;;;;;;;24.23;1.20;;;14.20;99.90;;;;;;4868391;29;20112;-94
2021/10/03 08:12:28;;;;;;;10.60;1.17;;;14.30;99.90;;;;;;4878378;29;20064;-94
2021/10/03 08:14:54;;;;;;;8.07;0.75;;;14.20;99.90;;;;;;4855723;29;20048;-94
2021/10/03 08:17:20;;;;;;;3.28;0.70;;;14.20;99.90;;;;;;4848488;29;20066;-94
2021/10/03 08:19:45;;;;;;;9.23;1.05;;;14.20;99.90;;;;;;4869744;29;20127;-94
2021/10/03 08:22:11;;;;;;;8.82;0.50;;;14.30;99.90;;;;;;4849093;29;20485;-95
2021/10/03 08:24:37;;;;;;;1.40;1.13;;;14.30;99.90;;;;;;4834785;29;20044;-94
2021/10/03 08:27:02;;;;;;;0.80;0.47;;;14.30;99.90;;;;;;4844781;29;20048;-93
2021/10/03 08:29:28;;;;;;;2.40;0.55;;;14.30;99.90;;;;;;4856814;29;20048;-93
2021/10/03 08:31:54;;;;;;;3.83;0.50;;;14.20;99.90;;;;;;4867388;29;20040;-95
2021/10/03 08:34:21;;;;;;;4.13;0.60;;;14.20;99.90;;;;;;4886037;29;20073;-94
2021/10/03 08:36:47;;;;;;;1.02;0.30;;;14.30;99.90;;;;;;4869354;29;20048;-94
2021/10/03 08:39:12;;;;;;;0.80;0.60;;;14.30;99.90;;;;;;4850137;29;20389;-95
2021/10/03 08:41:38;;;;;;;0.63;0.40;;;14.30;99.90;;;;;;4852396;29;20044;-95
2021/10/03 08:44:04;;;;;;;0.50;0.50;;;14.20;99.90;;;;;;4862966;29;20112;-95
2021/10/03 08:46:30;;;;;;;5.57;0.50;;;14.20;99.90;;;;;;4887184;29;20063;-95
2021/10/03 08:48:56;;;;;;;4.07;0.52;;;14.20;99.90;;;;;;4885047;29;20511;-95
2021/10/03 08:51:24;;;;;;;13.88;0.70;;;14.30;99.90;;;;;;4865284;29;20048;-95
2021/10/03 08:53:50;;;;;;;9.57;1.35;;;14.30;99.90;;;;;;4880271;29;20131;-95
2021/10/03 08:56:16;;;;;;;6.80;0.50;;;14.30;99.90;;;;;;4855168;29;20055;-94
2021/10/03 08:58:42;;;;;;;5.70;0.50;;;14.30;99.90;;;;;;4875119;29;20055;-95
2021/10/03 09:01:10;;;;;;;1.65;0.68;;;14.30;99.90;;;;;;4878244;29;20135;-94
2021/10/03 09:03:37;;;;;;;3.33;0.60;;;14.30;99.90;;;;;;4869704;29;20059;-96
2021/10/03 09:06:03;;;;;;;2.47;0.80;;;14.30;99.90;;;;;;4893920;29;20049;-95
2021/10/03 09:08:35;;;;;;;3.25;0.40;;;14.30;99.90;;;;;;4883315;29;20056;-95
2021/10/03 09:11:04;;;;;;;2.58;0.52;;;14.20;99.90;;;;;;4870163;29;20053;-95
2021/10/03 09:13:30;;;;;;;1.33;0.50;;;13.80;99.90;;;;;;4883406;29;20416;-95
2021/10/03 09:16:05;;;;;;;2.30;0.60;;;13.30;99.90;;;;;;4866931;29;20049;-94
2021/10/03 09:18:46;;;;;;;2.38;0.47;;;13.20;99.90;;;;;;4880331;29;20095;-95
2021/10/03 09:21:30;;;;;;;1.00;0.50;;;13.00;99.90;;;;;;4883522;29;20048;-94
2021/10/03 09:23:58;;;;;;;1.15;0.50;;;12.90;99.90;;;;;;4885838;29;20041;-95
2021/10/03 09:26:26;;;;;;;2.95;0.57;;;12.90;99.90;;;;;;4882144;29;20048;-93
2021/10/03 09:28:52;;;;;;;3.80;1.00;;;12.80;99.90;;;;;;4869552;29;20132;-92
2021/10/03 09:31:18;;;;;;;2.83;1.60;;;12.70;99.90;;;;;;4868555;29;20056;-94
2021/10/03 09:33:51;;;;;;;3.15;2.05;;;12.70;99.90;;;;;;4877128;29;20056;-95
2021/10/03 09:36:33;;;;;;;9.52;2.78;;;12.70;99.90;;;;;;4867203;29;20500;-95
2021/10/03 09:39:04;;;;;;;9.52;3.28;;;12.70;99.90;;;;;;4866254;29;20053;-96
2021/10/03 09:41:35;;;;;;;12.93;2.65;;;12.70;99.90;;;;;;4871938;29;20044;-94
2021/10/03 09:44:10;;;;;;;8.25;2.28;;;12.60;99.90;;;;;;4873150;29;20047;-96
2021/10/03 09:46:41;;;;;;;6.40;1.98;;;12.70;99.90;;;;;;4873494;29;20060;-94
2021/10/03 09:49:12;;;;;;;7.07;1.40;;;12.70;99.90;;;;;;4873212;29;20056;-96
2021/10/03 09:51:39;;;;;;;7.60;1.52;;;12.60;99.90;;;;;;4866383;29;20056;-94
2021/10/03 09:54:06;;;;;;;7.30;1.02;;;12.60;99.90;;;;;;4891585;29;20104;-95
2021/10/03 09:56:32;;;;;;;8.98;1.13;;;12.70;99.90;;;;;;4882074;29;20056;-92
2021/10/03 09:59:06;;;;;;;5.15;1.70;;;12.70;99.90;;;;;;4854178;29;20049;-95
2021/10/03 10:01:33;;;;;;;8.63;1.50;;;12.70;99.90;;;;;;4866392;29;20522;-92
2021/10/03 10:04:08;;;;;;;4.53;1.05;;;12.70;99.90;;;;;;4866097;29;20123;-94
2021/10/03 10:06:35;;;;;;;3.30;0.73;;;12.70;99.90;;;;;;4865058;29;20485;-93
2021/10/03 10:09:14;;;;;;;3.58;0.80;;;12.60;99.90;;;;;;4868261;29;20059;-93
2021/10/03 10:11:48;;;;;;;2.95;0.80;;;12.60;99.90;;;;;;4885394;29;20119;-92
2021/10/03 10:14:15;;;;;;;4.90;0.80;;;12.70;99.90;;;;;;4866428;29;20100;-93
2021/10/03 10:16:44;;;;;;;1.60;0.70;;;12.60;99.90;;;;;;4835812;29;20087;-94
2021/10/03 10:19:30;;;;;;;3.90;0.60;;;12.60;99.90;;;;;;4865989;29;20052;-93
2021/10/03 10:22:20;;;;;;;1.50;0.70;;;12.70;99.90;;;;;;4865613;29;20492;-93
2021/10/03 10:24:48;;;;;;;4.82;0.63;;;12.70;99.90;;;;;;4881292;29;20401;-94
2021/10/03 10:27:28;;;;;;;0.77;0.40;;;12.70;99.90;;;;;;4851126;29;20453;-93
2021/10/03 10:29:57;;;;;;;1.42;0.60;;;12.70;99.90;;;;;;4865582;29;20047;-92
2021/10/03 10:32:24;;;;;;;3.47;0.85;;;12.70;99.90;;;;;;4865918;29;20086;-93
2021/10/03 10:35:09;;;;;;;7.13;0.80;;;12.70;99.90;;;;;;4881123;29;20052;-94
2021/10/03 10:37:53;;;;;;;2.40;0.50;;;12.70;99.90;;;;;;4866331;29;20112;-93
2021/10/03 10:40:22;;;;;;;3.13;0.68;;;12.70;99.90;;;;;;4863904;29;20049;-93
2021/10/03 10:42:49;;;;;;;1.85;0.43;;;12.70;99.90;;;;;;4857796;29;20056;-94
2021/10/03 10:45:44;;;;;;;2.33;0.60;;;12.80;99.90;;;;;;4868936;29;20413;-92
2021/10/03 10:48:09;;;;;;;4.68;0.70;;;12.80;99.90;;;;;;4858015;29;20070;-93
2021/10/03 10:50:36;;;;;;;2.70;0.60;;;12.80;99.90;;;;;;4865825;29;20139;-92
2021/10/03 10:53:36;;;;;;;4.95;0.80;;;12.90;99.90;;;;;;4880591;29;20079;-93
2021/10/03 10:56:07;;;;;;;;;;;12.90;99.90;;;;;;4865492;29;20056;-92
2021/10/03 10:58:36;;;;;;;7.05;0.57;;;12.90;99.90;;;;;;4865120;29;19923;-93
2021/10/03 11:01:11;;;;;;;1.27;0.50;;;13.00;99.90;;;;;;4864722;29;20056;-93
2021/10/03 11:03:43;;;;;;;2.25;0.47;;;13.00;99.90;;;;;;4894163;29;20048;-93
2021/10/03 11:06:09;;;;;;;3.60;0.70;;;13.00;99.90;;;;;;4880636;29;20049;-92
2021/10/03 11:08:58;;;;;;;4.03;0.70;;;13.10;99.90;;;;;;4880659;29;20135;-92
2021/10/03 11:11:25;;;;;;;2.20;0.30;;;13.10;99.90;;;;;;4857593;29;20060;-92
2021/10/03 11:13:53;;;;;;;2.35;0.65;;;13.00;99.90;;;;;;4864548;29;20111;-94
2021/10/03 11:16:32;;;;;;;4.55;0.57;;;13.00;99.90;;;;;;4857038;29;20486;-93
2021/10/03 11:18:59;;;;;;;2.85;0.52;;;13.00;99.90;;;;;;4879747;29;20083;-92
2021/10/03 11:21:31;;;;;;;0.85;0.52;;;13.10;99.90;;;;;;4880238;29;20454;-92
2021/10/03 11:24:02;;;;;;;5.88;0.60;;;13.10;99.90;;;;;;4864337;29;20048;-93
2021/10/03 11:27:03;;;;;;;2.50;0.40;;;13.10;99.90;;;;;;4865105;29;20573;-92
2021/10/03 11:29:35;;;;;;;2.80;0.65;;;13.10;99.90;;;;;;4864119;29;20108;-93
2021/10/03 11:32:13;;;;;;;2.83;0.63;;;13.10;99.90;;;;;;4876946;29;20048;-92
2021/10/03 11:34:40;;;;;;;1.92;0.40;;;13.20;99.90;;;;;;4865192;29;20370;-94
2021/10/03 11:37:27;;;;;;;5.32;0.60;;;13.20;99.90;;;;;;4871800;29;20433;-94
2021/10/03 11:40:07;;;;;;;4.95;0.70;;;13.20;99.90;;;;;;4875855;29;20056;-94
2021/10/03 11:42:47;;;;;;;1.17;0.40;;;13.30;99.90;;;;;;4874345;29;20489;-93
2021/10/03 11:45:16;;;;;;;0.65;0.35;;;13.30;99.90;;;;;;4875992;29;20089;-95
2021/10/03 11:47:47;;;;;;;0.68;0.30;;;13.30;99.90;;;;;;4872067;29;20136;-94
2021/10/03 11:50:23;;;;;;;0.40;0.40;;;13.20;99.90;;;;;;4864353;29;20609;-94
2021/10/03 11:52:55;;;;;;;3.55;0.40;;;13.20;99.90;;;;;;4870960;29;20044;-94
2021/10/03 11:55:35;;;;;;;1.48;0.30;;;13.20;99.90;;;;;;4867223;29;20052;-95
2021/10/03 11:58:07;;;;;;;0.93;0.50;;;13.20;99.90;;;;;;4859232;29;20058;-95
2021/10/03 12:00:34;;;;;;;1.33;0.20;;;13.30;99.90;;;;;;4865192;29;20502;-95
2021/10/03 12:03:07;;;;;;;1.05;0.40;;;13.20;99.90;;;;;;4853636;29;20072;-95
2021/10/03 12:05:37;;;;;;;0.93;0.30;;;13.30;99.90;;;;;;4845865;29;20123;-96
2021/10/03 12:08:20;;;;;;;3.10;0.30;;;13.30;99.90;;;;;;4862835;29;20759;-96
2021/10/03 12:11:02;;;;;;;1.02;0.40;;;13.40;99.90;;;;;;4861223;29;20060;-94
2021/10/03 12:13:30;;;;;;;0.50;0.50;;;13.40;99.90;;;;;;4871661;29;20396;-96
2021/10/03 12:16:02;;;;;;;2.15;0.80;;;13.50;99.90;;;;;;4865379;29;20137;-94
2021/10/03 12:18:28;;;;;;;2.10;0.47;;;13.50;99.90;;;;;;4870567;29;20079;-94
2021/10/03 12:20:58;;;;;;;2.95;0.52;;;13.50;99.90;;;;;;4885320;29;20048;-94
2021/10/03 12:23:42;;;;;;;1.95;0.70;;;13.40;99.90;;;;;;4864197;29;20052;-92
2021/10/03 12:26:18;;;;;;;4.15;0.80;;;13.50;99.90;;;;;;4861346;29;20087;-94
2021/10/03 12:28:51;;;;;;;3.33;0.63;;;13.60;99.90;;;;;;4847700;29;20076;-93
2021/10/03 12:31:51;;;;;;;3.15;1.02;;;13.60;99.90;;;;;;4866205;29;20045;-95
2021/10/03 12:34:23;;;;;;;6.75;0.50;;;13.70;99.90;;;;;;4869216;29;20370;-95
2021/10/03 12:36:54;;;;;;;2.20;0.60;;;13.80;99.90;;;;;;4880679;29;20132;-92
2021/10/03 12:39:26;;;;;;;5.95;0.70;;;13.80;99.90;;;;;;4865165;29;20505;-92
2021/10/03 12:41:53;;;;;;;5.80;0.98;;;13.90;99.90;;;;;;4858503;29;20048;-92
2021/10/03 12:44:27;;;;;;;11.02;2.83;;;14.00;99.90;;;;;;4862399;29;20100;-91
2021/10/03 12:46:54;;;;;;;15.23;3.47;;;14.10;99.90;;;;;;4887884;29;20052;-91
2021/10/03 12:49:20;;;;;;;16.75;5.30;;;14.20;99.90;;;;;;4848938;29;20056;-93
2021/10/03 12:51:47;;;;;;;14.65;6.40;;;14.20;99.90;;;;;;4887813;29;20048;-91